createdAt,value
2022-09-21T00:00:30.236Z,5.27
2022-09-21T00:01:32.437Z,9.83
2022-09-21T00:02:34.235Z,6.33
2022-09-21T00:03:37.629Z,5.83
2022-09-21T00:04:39.324Z,5.77
2022-09-21T00:05:41.183Z,6.03
2022-09-21T00:06:42.852Z,5.20
2022-09-21T00:07:45.011Z,4.10
2022-09-21T00:08:47.760Z,8.67
2022-09-21T00:09:49.478Z,5.10
2022-09-21T00:10:51.255Z,6.00
2022-09-21T00:11:58.084Z,6.40
2022-09-21T00:13:02.925Z,5.83
2022-09-21T00:14:10.430Z,6.27
2022-09-21T00:15:14.305Z,6.47
2022-09-21T00:16:17.121Z,6.60
2022-09-21T00:17:18.900Z,5.87
2022-09-21T00:18:20.607Z,4.53
2022-09-21T00:19:22.792Z,8.87
2022-09-21T00:20:26.291Z,6.13
2022-09-21T00:21:28.394Z,4.77
2022-09-21T00:22:30.108Z,6.00
2022-09-21T00:23:31.845Z,7.40
2022-09-21T00:24:35.156Z,5.07
2022-09-21T00:25:36.851Z,5.77
2022-09-21T00:26:38.531Z,7.03
2022-09-21T00:27:40.671Z,8.17
2022-09-21T00:28:44.525Z,6.27
2022-09-21T00:29:46.214Z,5.23
2022-09-21T00:30:51.825Z,6.37
2022-09-21T00:31:53.518Z,7.93
2022-09-21T00:32:55.383Z,5.80
2022-09-21T00:33:58.349Z,6.77
2022-09-21T00:35:00.812Z,7.30
2022-09-21T00:36:07.638Z,6.07
2022-09-21T00:37:09.327Z,5.77
2022-09-21T00:38:10.990Z,7.90
2022-09-21T00:39:12.747Z,5.57
2022-09-21T00:40:14.577Z,7.20
2022-09-21T00:41:16.390Z,6.07
2022-09-21T00:42:24.852Z,7.13
2022-09-21T00:43:27.010Z,6.17
2022-09-21T00:44:32.152Z,8.33
2022-09-21T00:45:33.897Z,10.17
2022-09-21T00:46:39.036Z,7.87
2022-09-21T00:47:43.044Z,9.60
2022-09-21T00:48:46.500Z,9.23
2022-09-21T00:49:54.393Z,8.30
2022-09-21T00:51:01.792Z,6.90
2022-09-21T00:52:06.189Z,12.20
2022-09-21T00:53:08.106Z,6.93
2022-09-21T00:54:17.392Z,8.10
2022-09-21T00:55:33.695Z,7.10
2022-09-21T00:56:36.744Z,9.03
2022-09-21T00:57:39.193Z,7.93
2022-09-21T00:58:45.632Z,10.43
2022-09-21T00:59:48.856Z,11.60
2022-09-21T01:00:50.598Z,6.60
2022-09-21T01:01:52.733Z,7.57
2022-09-21T01:03:01.257Z,7.63
2022-09-21T01:04:03.069Z,6.90
2022-09-21T01:05:07.105Z,6.17
2022-09-21T01:06:08.847Z,9.70
2022-09-21T01:07:15.386Z,6.57
2022-09-21T01:08:19.809Z,6.20
2022-09-21T01:09:22.111Z,9.03
2022-09-21T01:10:25.196Z,8.70
2022-09-21T01:11:29.832Z,7.63
2022-09-21T01:12:40.922Z,8.53
2022-09-21T01:14:16.310Z,5.67
2022-09-21T01:15:18.775Z,7.33
2022-09-21T01:16:39.708Z,8.73
2022-09-21T01:18:03.112Z,9.77
2022-09-21T01:19:40.436Z,7.97
2022-09-21T01:21:10.939Z,8.93
2022-09-21T01:22:27.398Z,7.70
2022-09-21T01:24:06.655Z,9.90
2022-09-21T01:25:41.976Z,10.50
2022-09-21T01:27:02.258Z,5.67
2022-09-21T01:28:37.819Z,7.90
2022-09-21T01:29:46.528Z,7.87
2022-09-21T01:30:50.662Z,5.60
2022-09-21T01:32:18.283Z,9.10
2022-09-21T01:33:32.082Z,8.97
2022-09-21T01:34:52.595Z,8.87
2022-09-21T01:36:01.793Z,9.30
2022-09-21T01:37:09.408Z,8.33
2022-09-21T01:38:18.522Z,6.97
2022-09-21T01:39:22.397Z,10.43
2022-09-21T01:40:35.451Z,8.50
2022-09-21T01:41:40.535Z,6.33
2022-09-21T01:42:45.762Z,6.97
2022-09-21T01:43:55.550Z,8.97
2022-09-21T01:45:00.639Z,9.17
2022-09-21T01:46:04.674Z,8.80
2022-09-21T01:47:10.640Z,5.83
2022-09-21T01:48:13.188Z,7.07
2022-09-21T01:49:31.681Z,9.83
2022-09-21T01:50:47.976Z,8.40
2022-09-21T01:51:55.348Z,8.57
2022-09-21T01:53:06.887Z,6.97
2022-09-21T01:54:19.681Z,7.90
2022-09-21T01:55:29.724Z,10.20
2022-09-21T01:56:35.833Z,9.80
2022-09-21T01:57:47.310Z,8.90
2022-09-21T01:59:01.336Z,7.60
2022-09-21T02:00:05.463Z,7.63
2022-09-21T02:01:11.910Z,7.03
2022-09-21T02:02:28.722Z,7.80
2022-09-21T02:03:39.932Z,9.13
2022-09-21T02:04:41.878Z,10.93
2022-09-21T02:05:43.645Z,8.77
2022-09-21T02:06:48.135Z,10.17
2022-09-21T02:07:52.697Z,14.40
2022-09-21T02:08:54.537Z,11.87
2022-09-21T02:09:56.712Z,8.03
2022-09-21T02:11:01.569Z,9.53
2022-09-21T02:12:03.764Z,7.00
2022-09-21T02:13:08.016Z,10.00
2022-09-21T02:14:16.869Z,7.03
2022-09-21T02:15:24.608Z,7.97
2022-09-21T02:16:46.026Z,8.47
2022-09-21T02:18:04.333Z,8.77
2022-09-21T02:19:17.825Z,11.00
2022-09-21T02:20:33.022Z,7.57
2022-09-21T02:21:54.963Z,7.20
2022-09-21T02:22:56.584Z,7.97
2022-09-21T02:24:14.218Z,8.27
2022-09-21T02:25:20.931Z,6.97
2022-09-21T02:26:36.024Z,10.03
2022-09-21T02:27:56.134Z,9.33
2022-09-21T02:29:25.640Z,11.03
2022-09-21T02:30:28.061Z,7.97
2022-09-21T02:31:29.751Z,8.43
2022-09-21T02:32:40.446Z,8.87
2022-09-21T02:33:59.486Z,11.93
2022-09-21T02:35:08.191Z,12.13
2022-09-21T02:36:44.952Z,9.57
2022-09-21T02:38:10.973Z,8.13
2022-09-21T02:39:21.599Z,8.87
2022-09-21T02:40:27.510Z,7.43
2022-09-21T02:41:49.026Z,6.80
2022-09-21T02:42:56.650Z,7.77
2022-09-21T02:44:07.258Z,6.47
2022-09-21T02:45:22.851Z,9.57
2022-09-21T02:46:41.155Z,7.73
2022-09-21T02:48:00.412Z,9.17
2022-09-21T02:49:12.683Z,7.43
2022-09-21T02:50:28.362Z,7.23
2022-09-21T02:51:37.974Z,9.47
2022-09-21T02:52:42.744Z,9.03
2022-09-21T02:53:48.407Z,7.30
2022-09-21T02:54:52.118Z,8.43
2022-09-21T02:55:56.667Z,6.90
2022-09-21T02:57:00.453Z,13.77
2022-09-21T02:58:06.861Z,10.10
2022-09-21T02:59:08.758Z,7.57
2022-09-21T03:00:11.400Z,6.43
2022-09-21T03:01:15.812Z,8.00
2022-09-21T03:02:17.690Z,6.27
2022-09-21T03:03:23.281Z,7.47
2022-09-21T03:04:25.487Z,10.07
2022-09-21T03:05:28.652Z,8.40
2022-09-21T03:06:31.407Z,8.50
2022-09-21T03:07:39.370Z,8.00
2022-09-21T03:08:41.359Z,8.47
2022-09-21T03:09:43.205Z,8.60
2022-09-21T03:10:46.179Z,7.93
2022-09-21T03:11:48.050Z,8.27
2022-09-21T03:12:49.759Z,8.50
2022-09-21T03:13:51.682Z,7.00
2022-09-21T03:14:53.562Z,8.87
2022-09-21T03:16:03.597Z,8.03
2022-09-21T03:17:05.603Z,6.60
2022-09-21T03:18:11.925Z,8.37
2022-09-21T03:19:13.928Z,9.80
2022-09-21T03:20:16.488Z,9.17
2022-09-21T03:21:18.179Z,8.93
2022-09-21T03:22:21.233Z,10.63
2022-09-21T03:23:23.288Z,9.13
2022-09-21T03:24:43.532Z,9.27
2022-09-21T03:25:46.165Z,9.30
2022-09-21T03:26:48.335Z,10.33
2022-09-21T03:27:53.699Z,12.17
2022-09-21T03:28:55.755Z,8.50
2022-09-21T03:30:01.864Z,8.03
2022-09-21T03:31:04.037Z,8.63
2022-09-21T03:32:06.192Z,8.83
2022-09-21T03:33:08.284Z,7.13
2022-09-21T03:34:11.359Z,8.97
2022-09-21T03:35:13.126Z,7.87
2022-09-21T03:36:14.908Z,9.33
2022-09-21T03:37:17.094Z,6.93
2022-09-21T03:38:21.153Z,6.80
2022-09-21T03:39:22.873Z,8.43
2022-09-21T03:40:26.467Z,10.83
2022-09-21T03:41:28.186Z,10.87
2022-09-21T03:42:29.893Z,9.87
2022-09-21T03:43:32.087Z,12.90
2022-09-21T03:44:33.775Z,16.33
2022-09-21T03:45:35.489Z,9.37
2022-09-21T03:46:37.212Z,9.73
2022-09-21T03:47:40.279Z,9.80
2022-09-21T03:48:42.556Z,10.10
2022-09-21T03:49:44.267Z,11.37
2022-09-21T03:50:46.043Z,9.40
2022-09-21T03:51:47.847Z,11.23
2022-09-21T03:52:49.569Z,7.70
2022-09-21T03:53:51.484Z,6.90
2022-09-21T03:54:53.154Z,9.73
2022-09-21T03:55:54.864Z,8.00
2022-09-21T03:56:56.538Z,11.30
2022-09-21T03:57:58.200Z,9.77
2022-09-21T03:58:59.914Z,8.77
2022-09-21T04:00:04.043Z,8.90
2022-09-21T04:01:05.807Z,7.17
2022-09-21T04:02:07.659Z,7.63
2022-09-21T04:03:09.330Z,10.43
2022-09-21T04:04:11.035Z,8.53
2022-09-21T04:05:15.134Z,10.33
2022-09-21T04:06:17.071Z,12.03
2022-09-21T04:07:18.751Z,10.93
2022-09-21T04:08:20.422Z,10.30
2022-09-21T04:09:22.149Z,11.83
2022-09-21T04:10:33.256Z,9.10
2022-09-21T04:11:35.899Z,10.90
2022-09-21T04:12:37.641Z,9.53
2022-09-21T04:13:39.419Z,10.37
2022-09-21T04:14:41.097Z,9.63
2022-09-21T04:15:42.819Z,9.10
2022-09-21T04:16:44.920Z,12.20
2022-09-21T04:17:51.002Z,11.07
2022-09-21T04:18:53.048Z,12.63
2022-09-21T04:19:54.731Z,7.70
2022-09-21T04:20:56.460Z,8.00
2022-09-21T04:21:58.567Z,10.40
2022-09-21T04:23:00.314Z,8.87
2022-09-21T04:24:02.442Z,11.33
2022-09-21T04:25:05.443Z,11.63
2022-09-21T04:26:07.134Z,11.00
2022-09-21T04:27:10.376Z,7.93
2022-09-21T04:28:12.082Z,9.70
2022-09-21T04:29:14.868Z,11.43
2022-09-21T04:30:17.340Z,8.23
2022-09-21T04:31:19.723Z,9.27
2022-09-21T04:32:21.462Z,7.47
2022-09-21T04:33:23.939Z,8.93
2022-09-21T04:34:25.706Z,8.80
2022-09-21T04:35:27.905Z,9.10
2022-09-21T04:36:34.387Z,10.17
2022-09-21T04:37:38.379Z,10.77
2022-09-21T04:38:40.722Z,11.40
2022-09-21T04:39:42.451Z,11.77
2022-09-21T04:40:44.128Z,13.37
2022-09-21T04:41:45.923Z,11.30
2022-09-21T04:42:54.336Z,13.50
2022-09-21T04:43:56.124Z,10.77
2022-09-21T04:44:57.794Z,12.63
2022-09-21T04:46:04.364Z,9.00
2022-09-21T04:47:06.150Z,10.40
2022-09-21T04:48:07.838Z,10.70
2022-09-21T04:49:10.699Z,9.87
2022-09-21T04:50:12.448Z,9.93
2022-09-21T04:51:15.284Z,9.20
2022-09-21T04:52:19.077Z,10.73
2022-09-21T04:53:21.117Z,11.17
2022-09-21T04:54:22.845Z,10.60
2022-09-21T04:55:24.560Z,10.90
2022-09-21T04:56:26.440Z,10.50
2022-09-21T04:57:28.143Z,10.83
2022-09-21T04:58:30.392Z,10.17
2022-09-21T04:59:32.066Z,11.50
2022-09-21T05:00:33.908Z,10.90
2022-09-21T05:01:35.598Z,10.07
2022-09-21T05:02:37.362Z,16.17
2022-09-21T05:03:39.505Z,12.10
2022-09-21T05:04:41.386Z,9.77
2022-09-21T05:05:50.714Z,11.47
2022-09-21T05:06:52.393Z,12.00
2022-09-21T05:07:54.350Z,9.50
2022-09-21T05:09:15.104Z,11.33
2022-09-21T05:10:16.822Z,10.47
2022-09-21T05:11:19.365Z,11.63
2022-09-21T05:12:21.142Z,10.57
2022-09-21T05:13:22.855Z,9.77
2022-09-21T05:14:24.593Z,10.27
2022-09-21T05:15:26.326Z,9.67
2022-09-21T05:16:28.087Z,10.60
2022-09-21T05:17:29.765Z,9.20
2022-09-21T05:18:31.496Z,12.63
2022-09-21T05:19:33.174Z,12.60
2022-09-21T05:20:34.893Z,8.37
2022-09-21T05:21:37.137Z,10.93
2022-09-21T05:22:38.813Z,11.67
2022-09-21T05:23:40.729Z,11.77
2022-09-21T05:24:42.618Z,12.97
2022-09-21T05:25:44.273Z,13.60
2022-09-21T05:26:45.953Z,11.37
2022-09-21T05:27:47.685Z,12.90
2022-09-21T05:28:49.876Z,12.40
2022-09-21T05:29:51.945Z,10.30
2022-09-21T05:31:17.974Z,15.70
2022-09-21T05:32:28.114Z,13.07
2022-09-21T05:33:31.908Z,12.70
2022-09-21T05:34:52.202Z,12.73
2022-09-21T05:36:10.180Z,11.00
2022-09-21T05:37:42.780Z,12.40
2022-09-21T05:38:44.678Z,12.40
2022-09-21T05:39:46.642Z,12.80
2022-09-21T05:40:50.140Z,12.47
2022-09-21T05:41:52.243Z,12.03
2022-09-21T05:42:54.271Z,12.13
2022-09-21T05:43:56.377Z,11.47
2022-09-21T05:44:58.327Z,10.20
2022-09-21T05:46:28.844Z,12.17
2022-09-21T05:47:44.461Z,11.43
2022-09-21T05:48:59.800Z,12.13
2022-09-21T05:50:22.625Z,10.13
2022-09-21T05:52:03.309Z,12.23
2022-09-21T05:53:10.550Z,11.63
2022-09-21T05:54:36.473Z,10.73
2022-09-21T05:55:41.247Z,11.07
2022-09-21T05:56:54.836Z,11.07
2022-09-21T05:58:35.103Z,12.90
2022-09-21T05:59:58.948Z,12.07
2022-09-21T06:01:11.443Z,16.30
2022-09-21T06:02:32.641Z,12.30
2022-09-21T06:03:36.305Z,13.27
2022-09-21T06:04:38.229Z,14.37
2022-09-21T06:05:41.025Z,13.37
2022-09-21T06:06:42.745Z,14.33
2022-09-21T06:07:44.444Z,14.00
2022-09-21T06:08:46.470Z,17.50
2022-09-21T06:09:48.166Z,13.27
2022-09-21T06:10:49.972Z,13.33
2022-09-21T06:11:52.087Z,14.03
2022-09-21T06:12:53.772Z,20.10
2022-09-21T06:13:55.535Z,16.33
2022-09-21T06:14:57.323Z,13.00
2022-09-21T06:16:02.534Z,14.67
2022-09-21T06:17:04.831Z,16.93
2022-09-21T06:18:07.662Z,15.83
2022-09-21T06:19:13.503Z,15.20
2022-09-21T06:20:15.299Z,13.63
2022-09-21T06:21:16.983Z,15.97
2022-09-21T06:22:18.808Z,13.87
2022-09-21T06:23:20.676Z,15.30
2022-09-21T06:24:24.895Z,16.97
2022-09-21T06:25:26.970Z,19.47
2022-09-21T06:26:28.906Z,13.33
2022-09-21T06:27:30.900Z,11.77
2022-09-21T06:28:32.630Z,13.20
2022-09-21T06:29:34.294Z,13.30
2022-09-21T06:30:36.614Z,13.37
2022-09-21T06:31:38.384Z,15.33
2022-09-21T06:32:40.150Z,13.60
2022-09-21T06:33:46.117Z,13.37
2022-09-21T06:34:49.938Z,14.47
2022-09-21T06:35:54.746Z,12.37
2022-09-21T06:36:56.649Z,13.13
2022-09-21T06:37:59.850Z,13.10
2022-09-21T06:39:01.498Z,13.67
2022-09-21T06:40:03.396Z,11.63
2022-09-21T06:41:05.624Z,12.83
2022-09-21T06:42:07.766Z,13.03
2022-09-21T06:43:09.561Z,11.87
2022-09-21T06:44:11.265Z,13.67
2022-09-21T06:45:13.086Z,13.37
2022-09-21T06:46:14.887Z,12.10
2022-09-21T06:47:16.654Z,12.57
2022-09-21T06:48:18.374Z,14.80
2022-09-21T06:49:20.103Z,13.03
2022-09-21T06:50:22.697Z,12.53
2022-09-21T06:51:24.457Z,12.30
2022-09-21T06:52:26.122Z,12.77
2022-09-21T06:53:29.668Z,9.67
2022-09-21T06:54:31.363Z,10.37
2022-09-21T06:55:34.514Z,12.53
2022-09-21T06:56:36.596Z,10.67
2022-09-21T06:57:41.467Z,9.87
2022-09-21T06:58:43.404Z,11.33
2022-09-21T06:59:45.088Z,12.90
2022-09-21T07:00:46.895Z,9.60
2022-09-21T07:01:48.663Z,13.73
2022-09-21T07:02:50.474Z,11.17
2022-09-21T07:03:52.874Z,14.97
2022-09-21T07:04:54.791Z,9.83
2022-09-21T07:05:56.485Z,13.50
2022-09-21T07:06:59.641Z,11.13
2022-09-21T07:08:03.223Z,11.57
2022-09-21T07:10:27.803Z,12.20
2022-09-21T07:11:29.667Z,11.50
2022-09-21T07:12:34.527Z,9.13
2022-09-21T07:13:36.573Z,12.70
2022-09-21T07:14:38.262Z,9.10
2022-09-21T07:15:39.979Z,8.40
2022-09-21T07:16:42.091Z,10.23
2022-09-21T07:17:51.721Z,9.17
2022-09-21T07:18:53.758Z,8.57
2022-09-21T07:19:55.417Z,8.50
2022-09-21T07:20:57.137Z,8.47
2022-09-21T07:21:58.841Z,8.60
2022-09-21T07:23:01.765Z,9.47
2022-09-21T07:24:05.430Z,10.23
2022-09-21T07:25:10.419Z,7.77
2022-09-21T07:26:14.166Z,10.80
2022-09-21T07:27:16.037Z,8.90
2022-09-21T07:28:18.339Z,7.53
2022-09-21T07:29:20.043Z,8.13
2022-09-21T07:30:21.747Z,8.63
2022-09-21T07:31:23.446Z,8.53
2022-09-21T07:32:28.465Z,9.27
2022-09-21T07:33:36.022Z,10.23
2022-09-21T07:34:38.171Z,10.77
2022-09-21T07:35:39.931Z,8.47
2022-09-21T07:36:42.001Z,8.60
2022-09-21T07:37:43.683Z,7.97
2022-09-21T07:38:45.393Z,8.95
2022-09-21T07:39:47.049Z,6.97
2022-09-21T07:40:48.870Z,8.97
2022-09-21T07:41:50.593Z,6.67
2022-09-21T07:42:52.507Z,7.93
2022-09-21T07:43:54.505Z,7.23
2022-09-21T07:45:03.971Z,6.17
2022-09-21T07:46:07.751Z,9.83
2022-09-21T07:47:09.449Z,9.90
2022-09-21T07:48:11.195Z,5.75
2022-09-21T07:49:13.510Z,7.75
2022-09-21T07:50:15.318Z,7.45
2022-09-21T07:51:17.242Z,11.33
2022-09-21T07:52:19.353Z,6.67
2022-09-21T07:53:21.073Z,8.67
2022-09-21T07:54:23.102Z,7.47
2022-09-21T07:55:24.806Z,12.07
2022-09-21T07:56:26.593Z,7.32
2022-09-21T07:57:46.934Z,14.43
2022-09-21T07:59:07.082Z,10.10
2022-09-21T08:00:09.602Z,9.23
2022-09-21T08:01:12.186Z,7.87
2022-09-21T08:02:14.095Z,7.28
2022-09-21T08:03:15.884Z,7.80
2022-09-21T08:04:17.696Z,11.53
2022-09-21T08:05:19.690Z,10.83
2022-09-21T08:06:23.486Z,11.05
2022-09-21T08:07:25.202Z,11.00
2022-09-21T08:08:26.911Z,11.77
2022-09-21T08:09:28.593Z,12.32
2022-09-21T08:10:31.969Z,6.20
2022-09-21T08:11:34.023Z,10.07
2022-09-21T08:12:35.777Z,7.32
2022-09-21T08:13:37.697Z,13.20
2022-09-21T08:14:39.572Z,9.50
2022-09-21T08:15:49.761Z,10.80
2022-09-21T08:16:52.114Z,10.02
2022-09-21T08:17:54.444Z,12.10
2022-09-21T08:18:56.192Z,8.73
2022-09-21T08:19:58.624Z,10.00
2022-09-21T08:21:00.805Z,9.82
2022-09-21T08:22:02.802Z,8.20
2022-09-21T08:23:04.991Z,6.75
2022-09-21T08:24:06.956Z,7.38
2022-09-21T08:25:10.638Z,7.03
2022-09-21T08:26:18.627Z,6.63
2022-09-21T08:27:20.403Z,5.90
2022-09-21T08:28:22.072Z,4.90
2022-09-21T08:29:24.931Z,6.60
2022-09-21T08:30:28.686Z,7.22
2022-09-21T08:31:30.874Z,5.55
2022-09-21T08:32:49.971Z,8.13
2022-09-21T08:33:54.768Z,4.78
2022-09-21T08:34:56.435Z,4.95
2022-09-21T08:36:00.355Z,5.40
2022-09-21T08:37:02.055Z,5.55
2022-09-21T08:38:03.866Z,7.45
2022-09-21T08:39:09.144Z,5.10
2022-09-21T08:40:12.044Z,5.53
2022-09-21T08:41:22.475Z,5.32
2022-09-21T08:42:39.870Z,5.43
2022-09-21T08:43:44.559Z,6.35
2022-09-21T08:44:53.522Z,6.63
2022-09-21T08:45:57.519Z,5.43
2022-09-21T08:47:09.995Z,4.88
2022-09-21T08:48:26.905Z,8.82
2022-09-21T08:49:33.915Z,5.35
2022-09-21T08:50:53.023Z,5.07
2022-09-21T08:52:14.316Z,5.57
2022-09-21T08:53:27.078Z,8.50
2022-09-21T08:54:34.853Z,5.25
2022-09-21T08:55:36.615Z,6.63
2022-09-21T08:57:01.039Z,6.00
2022-09-21T08:58:01.142Z,4.15
2022-09-21T08:59:02.852Z,5.43
2022-09-21T09:00:14.951Z,7.38
2022-09-21T09:01:29.243Z,9.27
2022-09-21T09:03:12.486Z,5.18
2022-09-21T09:04:52.703Z,6.53
2022-09-21T09:06:06.846Z,5.07
2022-09-21T09:07:24.356Z,5.10
2022-09-21T09:09:02.621Z,6.30
2022-09-21T09:10:19.957Z,7.43
2022-09-21T09:11:40.362Z,6.50
2022-09-21T09:13:02.690Z,4.70
2022-09-21T09:14:25.976Z,4.75
2022-09-21T09:15:38.642Z,6.88
2022-09-21T09:16:46.393Z,6.25
2022-09-21T09:18:11.896Z,5.97
2022-09-21T09:19:28.757Z,11.23
2022-09-21T09:20:36.455Z,6.65
2022-09-21T09:21:42.694Z,14.07
2022-09-21T09:22:52.652Z,6.75
2022-09-21T09:24:10.044Z,8.43
2022-09-21T09:25:24.602Z,8.93
2022-09-21T09:26:34.836Z,9.55
2022-09-21T09:27:42.904Z,6.75
2022-09-21T09:28:55.922Z,4.60
2022-09-21T09:30:18.335Z,6.53
2022-09-21T09:31:31.834Z,8.63
2022-09-21T09:32:45.538Z,4.80
2022-09-21T09:34:06.082Z,7.18
2022-09-21T09:35:21.003Z,7.15
2022-09-21T09:36:53.826Z,3.53
2022-09-21T09:37:50.841Z,3.60
2022-09-21T09:39:00.442Z,9.13
2022-09-21T09:40:02.571Z,3.38
2022-09-21T09:41:37.729Z,5.30
2022-09-21T09:42:49.937Z,5.45
2022-09-21T09:44:22.078Z,5.10
2022-09-21T09:45:51.462Z,4.60
2022-09-21T09:47:11.821Z,4.75
2022-09-21T09:48:27.090Z,6.47
2022-09-21T09:50:06.705Z,4.68
2022-09-21T09:51:12.937Z,5.85
2022-09-21T09:52:16.149Z,5.90
2022-09-21T09:53:20.688Z,4.72
2022-09-21T09:54:28.106Z,5.72
2022-09-21T09:55:38.189Z,7.20
2022-09-21T09:56:39.942Z,7.38
2022-09-21T09:57:41.735Z,5.20
2022-09-21T09:59:08.194Z,5.30
2022-09-21T10:00:15.942Z,4.07
2022-09-21T10:01:38.006Z,2.97
2022-09-21T10:02:49.344Z,4.18
2022-09-21T10:04:08.921Z,4.13
2022-09-21T10:05:20.560Z,3.33
2022-09-21T10:06:31.987Z,3.65
2022-09-21T10:07:43.036Z,3.63
2022-09-21T10:08:48.717Z,3.75
2022-09-21T10:09:50.431Z,4.47
2022-09-21T10:10:52.233Z,2.65
2022-09-21T10:11:59.008Z,3.42
2022-09-21T10:13:06.905Z,2.42
2022-09-21T10:14:10.850Z,1.67
2022-09-21T10:15:12.721Z,3.30
2022-09-21T10:16:14.492Z,3.08
2022-09-21T10:17:17.815Z,2.55
2022-09-21T10:18:34.853Z,2.83
2022-09-21T10:19:38.152Z,3.75
2022-09-21T10:20:51.210Z,3.47
2022-09-21T10:21:57.785Z,2.72
2022-09-21T10:23:00.764Z,2.78
2022-09-21T10:24:19.478Z,3.78
2022-09-21T10:25:21.697Z,2.55
2022-09-21T10:26:23.730Z,4.88
2022-09-21T10:27:36.117Z,3.53
2022-09-21T10:28:55.009Z,2.47
2022-09-21T10:29:57.495Z,2.17
2022-09-21T10:31:23.687Z,4.82
2022-09-21T10:32:27.552Z,3.83
2022-09-21T10:33:30.381Z,2.00
2022-09-21T10:34:34.202Z,2.75
2022-09-21T10:35:50.247Z,4.13
2022-09-21T10:36:55.631Z,3.00
2022-09-21T10:38:22.389Z,2.22
2022-09-21T10:39:28.593Z,2.10
2022-09-21T10:40:35.668Z,1.52
2022-09-21T10:41:38.510Z,1.50
2022-09-21T10:42:43.450Z,1.98
2022-09-21T10:43:45.412Z,1.88
2022-09-21T10:44:52.923Z,1.77
2022-09-21T10:45:57.201Z,3.10
2022-09-21T10:47:04.055Z,0.93
2022-09-21T10:48:05.718Z,1.80
2022-09-21T10:49:19.315Z,2.25
2022-09-21T10:50:37.858Z,1.38
2022-09-21T10:51:39.764Z,1.38
2022-09-21T10:52:45.972Z,1.95
2022-09-21T10:53:54.555Z,1.92
2022-09-21T10:54:56.935Z,1.35
2022-09-21T10:56:14.522Z,2.97
2022-09-21T10:57:19.469Z,0.80
2022-09-21T10:58:22.077Z,1.92
2022-09-21T10:59:29.781Z,1.95
2022-09-21T11:00:37.790Z,1.15
2022-09-21T11:01:48.533Z,3.03
2022-09-21T11:02:50.893Z,1.83
2022-09-21T11:04:05.488Z,1.17
2022-09-21T11:05:16.500Z,3.17
2022-09-21T11:06:24.216Z,2.75
2022-09-21T11:07:37.062Z,2.13
2022-09-21T11:08:47.271Z,1.30
2022-09-21T11:09:59.478Z,1.80
2022-09-21T11:11:16.832Z,3.35
2022-09-21T11:12:21.824Z,2.05
2022-09-21T11:13:47.849Z,1.75
2022-09-21T11:14:55.408Z,1.48
2022-09-21T11:16:18.454Z,1.60
2022-09-21T11:17:36.715Z,1.88
2022-09-21T11:18:50.689Z,1.35
2022-09-21T11:20:16.312Z,2.88
2022-09-21T11:21:34.410Z,1.30
2022-09-21T11:22:52.302Z,1.67
2022-09-21T11:24:07.689Z,2.33
2022-09-21T11:25:38.685Z,3.17
2022-09-21T11:26:51.643Z,2.05
2022-09-21T11:28:13.363Z,4.13
2022-09-21T11:29:21.882Z,1.77
2022-09-21T11:30:32.377Z,1.83
2022-09-21T11:31:51.484Z,3.25
2022-09-21T11:33:18.919Z,3.60
2022-09-21T11:35:08.807Z,2.33
2022-09-21T11:36:27.231Z,1.20
2022-09-21T11:37:59.076Z,3.22
2022-09-21T11:39:09.590Z,0.90
2022-09-21T11:40:20.139Z,0.75
2022-09-21T11:41:35.756Z,4.50
2022-09-21T11:43:09.231Z,1.05
2022-09-21T11:44:19.867Z,3.70
2022-09-21T11:45:52.238Z,2.35
2022-09-21T11:47:31.756Z,1.23
2022-09-21T11:49:02.394Z,0.90
2022-09-21T11:50:32.072Z,0.82
2022-09-21T11:52:15.134Z,1.63
2022-09-21T11:53:44.345Z,2.15
2022-09-21T11:55:09.421Z,0.82
2022-09-21T11:56:34.994Z,2.20
2022-09-21T11:57:42.455Z,2.85
2022-09-21T11:59:11.189Z,0.88
2022-09-21T12:00:17.797Z,0.73
2022-09-21T12:01:46.427Z,1.60
2022-09-21T12:03:07.267Z,1.08
2022-09-21T12:04:30.258Z,1.48
2022-09-21T12:05:43.981Z,1.08
2022-09-21T12:06:59.490Z,1.42
2022-09-21T12:08:15.791Z,2.90
2022-09-21T12:09:57.066Z,1.27
2022-09-21T12:11:34.789Z,1.33
2022-09-21T12:12:54.337Z,1.88
2022-09-21T12:14:33.767Z,2.35
2022-09-21T12:15:48.054Z,1.13
2022-09-21T12:16:58.685Z,1.83
2022-09-21T12:18:12.926Z,0.98
2022-09-21T12:19:34.991Z,1.35
2022-09-21T12:20:47.730Z,1.75
2022-09-21T12:21:55.618Z,1.80
2022-09-21T12:23:06.103Z,1.35
2022-09-21T12:24:33.653Z,1.65
2022-09-21T12:25:41.555Z,1.35
2022-09-21T12:26:47.936Z,2.25
2022-09-21T12:28:26.413Z,0.93
2022-09-21T12:29:47.555Z,0.60
2022-09-21T12:30:56.318Z,3.53
2022-09-21T12:32:03.769Z,1.95
2022-09-21T12:33:24.151Z,2.03
2022-09-21T12:34:34.073Z,1.77
2022-09-21T12:35:55.894Z,2.03
2022-09-21T12:37:31.720Z,0.80
2022-09-21T12:39:20.695Z,0.95
2022-09-21T12:40:45.611Z,1.38
2022-09-21T12:42:22.719Z,6.10
2022-09-21T12:43:46.997Z,0.65
2022-09-21T12:45:04.134Z,1.55
2022-09-21T12:46:08.347Z,1.98
2022-09-21T12:47:13.335Z,0.90
2022-09-21T12:48:29.135Z,0.70
2022-09-21T12:49:32.937Z,0.88
2022-09-21T12:50:48.528Z,2.78
2022-09-21T12:51:55.106Z,1.58
2022-09-21T12:52:58.225Z,0.70
2022-09-21T12:54:08.550Z,1.13
2022-09-21T12:55:31.500Z,2.60
2022-09-21T12:56:49.860Z,2.63
2022-09-21T12:58:16.725Z,1.58
2022-09-21T12:59:34.811Z,1.08
2022-09-21T13:00:58.132Z,1.80
2022-09-21T13:02:00.211Z,2.33
2022-09-21T13:03:37.675Z,2.25
2022-09-21T13:05:11.850Z,1.55
2022-09-21T13:06:42.762Z,0.50
2022-09-21T13:07:53.459Z,0.95
2022-09-21T13:08:56.473Z,2.42
2022-09-21T13:10:00.338Z,0.80
2022-09-21T13:11:05.607Z,0.68
2022-09-21T13:12:13.567Z,1.88
2022-09-21T13:13:30.553Z,0.77
2022-09-21T13:14:36.360Z,1.33
2022-09-21T13:15:48.150Z,0.63
2022-09-21T13:17:00.888Z,1.25
2022-09-21T13:18:05.730Z,0.60
2022-09-21T13:19:13.274Z,0.70
2022-09-21T13:20:19.475Z,1.00
2022-09-21T13:21:29.825Z,0.68
2022-09-21T13:22:35.992Z,1.73
2022-09-21T13:23:42.893Z,1.65
2022-09-21T13:24:46.969Z,0.70
2022-09-21T13:26:09.436Z,2.45
2022-09-21T13:27:11.930Z,1.00
2022-09-21T13:28:16.755Z,1.10
2022-09-21T13:29:25.154Z,1.63
2022-09-21T13:30:29.688Z,1.10
2022-09-21T13:31:43.012Z,1.00
2022-09-21T13:32:51.999Z,1.10
2022-09-21T13:34:15.467Z,1.40
2022-09-21T13:35:48.391Z,2.00
2022-09-21T13:37:16.818Z,2.55
2022-09-21T13:38:32.242Z,1.83
2022-09-21T13:39:34.014Z,1.77
2022-09-21T13:40:35.749Z,1.42
2022-09-21T13:42:01.905Z,1.77
2022-09-21T13:43:20.117Z,1.35
2022-09-21T13:44:43.380Z,1.33
2022-09-21T13:45:56.199Z,1.17
2022-09-21T13:46:58.414Z,3.22
2022-09-21T13:48:25.054Z,2.75
2022-09-21T13:49:33.727Z,2.17
2022-09-21T13:50:45.487Z,1.50
2022-09-21T13:52:13.291Z,0.80
2022-09-21T13:53:32.279Z,2.05
2022-09-21T13:54:44.595Z,1.02
2022-09-21T13:55:53.224Z,1.83
2022-09-21T13:57:13.910Z,3.13
2022-09-21T13:58:25.225Z,3.88
2022-09-21T13:59:27.870Z,1.02
2022-09-21T14:00:37.386Z,0.82
2022-09-21T14:01:48.016Z,0.95
2022-09-21T14:02:54.730Z,2.05
2022-09-21T14:04:03.618Z,2.00
2022-09-21T14:05:34.429Z,1.10
2022-09-21T14:06:44.791Z,2.13
2022-09-21T14:07:48.144Z,1.80
2022-09-21T14:08:55.342Z,2.22
2022-09-21T14:10:01.690Z,1.65
2022-09-21T14:11:10.067Z,2.17
2022-09-21T14:12:21.318Z,1.50
2022-09-21T14:13:43.862Z,2.28
2022-09-21T14:15:28.088Z,0.60
2022-09-21T14:16:37.280Z,2.47
2022-09-21T14:17:40.583Z,1.35
2022-09-21T14:18:42.928Z,1.08
2022-09-21T14:19:45.479Z,1.80
2022-09-21T14:21:22.815Z,1.48
2022-09-21T14:22:26.553Z,1.08
2022-09-21T14:23:29.379Z,3.65
2022-09-21T14:24:38.342Z,1.65
2022-09-21T14:25:49.151Z,1.00
2022-09-21T14:27:09.709Z,1.38
2022-09-21T14:28:13.251Z,2.15
2022-09-21T14:29:26.855Z,2.92
2022-09-21T14:30:32.376Z,2.63
2022-09-21T14:31:39.030Z,2.33
2022-09-21T14:32:47.277Z,3.42
2022-09-21T14:33:55.170Z,1.63
2022-09-21T14:35:11.327Z,1.38
2022-09-21T14:36:21.273Z,0.88
2022-09-21T14:37:37.718Z,0.85
2022-09-21T14:38:53.343Z,1.60
2022-09-21T14:39:56.863Z,2.15
2022-09-21T14:41:07.324Z,2.70
2022-09-21T14:42:19.563Z,2.15
2022-09-21T14:43:28.086Z,2.22
2022-09-21T14:44:31.723Z,1.55
2022-09-21T14:46:12.534Z,2.78
2022-09-21T14:47:30.612Z,1.10
2022-09-21T14:49:24.520Z,1.50
2022-09-21T14:50:36.201Z,1.67
2022-09-21T14:52:20.226Z,1.33
2022-09-21T14:53:54.169Z,1.17
2022-09-21T14:55:15.710Z,0.88
2022-09-21T14:56:39.065Z,1.27
2022-09-21T14:58:21.439Z,1.35
2022-09-21T14:59:42.120Z,1.63
2022-09-21T15:00:47.806Z,1.85
2022-09-21T15:02:16.318Z,0.75
2022-09-21T15:03:39.250Z,0.73
2022-09-21T15:05:20.597Z,1.00
2022-09-21T15:06:57.029Z,1.60
2022-09-21T15:08:29.893Z,1.30
2022-09-21T15:10:17.894Z,1.00
2022-09-21T15:11:43.734Z,1.50
2022-09-21T15:12:59.605Z,2.50
2022-09-21T15:14:16.302Z,0.82
2022-09-21T15:16:00.213Z,0.88
2022-09-21T15:17:25.155Z,1.40